sensor_id;sensor_type;location;lat;lon;timestamp;pressure;altitude;pressure_sealevel;temperature;humidity
59104;BME280;51449;51.676;5.812;2023-03-26T00:02:16;100653.91;;;9.53;78.78
59104;BME280;51449;51.676;5.812;2023-03-26T00:04:37;100659.41;;;9.53;79.19
59104;BME280;51449;51.676;5.812;2023-03-26T00:06:59;100652.81;;;9.54;79.03
59104;BME280;51449;51.676;5.812;2023-03-26T00:09:21;100655.56;;;9.54;79.25
59104;BME280;51449;51.676;5.812;2023-03-26T00:11:43;100658.63;;;9.52;79.27
59104;BME280;51449;51.676;5.812;2023-03-26T00:14:07;100651.34;;;9.56;79.40
59104;BME280;51449;51.676;5.812;2023-03-26T00:16:34;100652.13;;;9.57;79.39
59104;BME280;51449;51.676;5.812;2023-03-26T00:18:56;100649.88;;;9.59;79.00
59104;BME280;51449;51.676;5.812;2023-03-26T00:21:22;100651.94;;;9.62;79.39
59104;BME280;51449;51.676;5.812;2023-03-26T00:23:48;100647.41;;;9.66;78.73
59104;BME280;51449;51.676;5.812;2023-03-26T00:26:10;100643.19;;;9.69;78.64
59104;BME280;51449;51.676;5.812;2023-03-26T00:28:33;100640.56;;;9.72;78.98
59104;BME280;51449;51.676;5.812;2023-03-26T00:31:01;100644.94;;;9.73;78.84
59104;BME280;51449;51.676;5.812;2023-03-26T00:33:25;100637.00;;;9.72;79.04
59104;BME280;51449;51.676;5.812;2023-03-26T00:35:55;100640.56;;;9.72;78.86
59104;BME280;51449;51.676;5.812;2023-03-26T00:38:20;100639.44;;;9.73;79.38
59104;BME280;51449;51.676;5.812;2023-03-26T00:40:44;100636.34;;;9.75;79.25
59104;BME280;51449;51.676;5.812;2023-03-26T00:43:11;100627.28;;;9.74;79.18
59104;BME280;51449;51.676;5.812;2023-03-26T00:45:39;100631.50;;;9.72;79.37
59104;BME280;51449;51.676;5.812;2023-03-26T00:48:01;100629.06;;;9.70;79.07
59104;BME280;51449;51.676;5.812;2023-03-26T00:50:23;100628.28;;;9.70;78.99
59104;BME280;51449;51.676;5.812;2023-03-26T00:52:44;100619.22;;;9.69;78.92
59104;BME280;51449;51.676;5.812;2023-03-26T00:55:07;100620.81;;;9.70;78.77
59104;BME280;51449;51.676;5.812;2023-03-26T00:57:29;100622.94;;;9.73;78.91
59104;BME280;51449;51.676;5.812;2023-03-26T00:59:56;100620.19;;;9.73;78.91
59104;BME280;51449;51.676;5.812;2023-03-26T01:02:18;100612.03;;;9.77;78.71
59104;BME280;51449;51.676;5.812;2023-03-26T01:04:44;100612.53;;;9.79;78.46
59104;BME280;51449;51.676;5.812;2023-03-26T01:07:15;100603.00;;;9.76;78.98
59104;BME280;51449;51.676;5.812;2023-03-26T01:09:43;100611.75;;;9.70;79.01
59104;BME280;51449;51.676;5.812;2023-03-26T01:12:13;100605.94;;;9.71;78.88
59104;BME280;51449;51.676;5.812;2023-03-26T01:14:38;100599.47;;;9.67;78.62
59104;BME280;51449;51.676;5.812;2023-03-26T01:17:01;100596.25;;;9.65;78.70
59104;BME280;51449;51.676;5.812;2023-03-26T01:19:38;100598.22;;;9.64;78.67
59104;BME280;51449;51.676;5.812;2023-03-26T01:22:07;100595.34;;;9.61;78.30
59104;BME280;51449;51.676;5.812;2023-03-26T01:24:32;100584.19;;;9.57;78.61
59104;BME280;51449;51.676;5.812;2023-03-26T01:26:59;100576.25;;;9.56;78.44
59104;BME280;51449;51.676;5.812;2023-03-26T01:29:52;100577.88;;;9.57;78.70
59104;BME280;51449;51.676;5.812;2023-03-26T01:32:37;100580.03;;;9.51;78.59
59104;BME280;51449;51.676;5.812;2023-03-26T01:40:34;100558.84;;;9.43;78.45
59104;BME280;51449;51.676;5.812;2023-03-26T01:45:55;100544.31;;;9.42;78.47
59104;BME280;51449;51.676;5.812;2023-03-26T01:48:28;100539.97;;;9.41;78.05
59104;BME280;51449;51.676;5.812;2023-03-26T01:50:52;100536.25;;;9.37;78.45
59104;BME280;51449;51.676;5.812;2023-03-26T01:53:16;100535.31;;;9.33;78.19
59104;BME280;51449;51.676;5.812;2023-03-26T01:55:41;100529.66;;;9.30;78.22
59104;BME280;51449;51.676;5.812;2023-03-26T02:01:25;100524.09;;;9.17;78.09
59104;BME280;51449;51.676;5.812;2023-03-26T02:04:01;100529.78;;;9.12;78.13
59104;BME280;51449;51.676;5.812;2023-03-26T02:09:50;100529.00;;;9.03;78.12
59104;BME280;51449;51.676;5.812;2023-03-26T02:12:20;100528.03;;;8.99;78.07
59104;BME280;51449;51.676;5.812;2023-03-26T02:14:44;100524.00;;;8.96;77.81
59104;BME280;51449;51.676;5.812;2023-03-26T02:17:06;100512.53;;;8.94;78.39
59104;BME280;51449;51.676;5.812;2023-03-26T02:19:30;100506.91;;;8.91;78.17
59104;BME280;51449;51.676;5.812;2023-03-26T02:21:52;100509.50;;;8.87;78.44
59104;BME280;51449;51.676;5.812;2023-03-26T02:24:14;100510.66;;;8.86;78.58
59104;BME280;51449;51.676;5.812;2023-03-26T02:26:36;100507.41;;;8.84;78.62
59104;BME280;51449;51.676;5.812;2023-03-26T02:29:04;100503.41;;;8.82;78.74
59104;BME280;51449;51.676;5.812;2023-03-26T02:31:28;100499.50;;;8.83;79.14
59104;BME280;51449;51.676;5.812;2023-03-26T02:33:52;100484.84;;;8.78;78.93
59104;BME280;51449;51.676;5.812;2023-03-26T02:36:17;100491.31;;;8.74;79.31
59104;BME280;51449;51.676;5.812;2023-03-26T02:38:45;100479.38;;;8.70;79.44
59104;BME280;51449;51.676;5.812;2023-03-26T02:41:08;100487.13;;;8.68;79.08
59104;BME280;51449;51.676;5.812;2023-03-26T02:43:43;100478.88;;;8.68;79.23
59104;BME280;51449;51.676;5.812;2023-03-26T02:46:09;100471.31;;;8.65;79.28
59104;BME280;51449;51.676;5.812;2023-03-26T02:48:49;100478.28;;;8.62;79.12
59104;BME280;51449;51.676;5.812;2023-03-26T02:51:17;100469.06;;;8.58;79.34
59104;BME280;51449;51.676;5.812;2023-03-26T02:53:52;100475.72;;;8.57;79.55
59104;BME280;51449;51.676;5.812;2023-03-26T02:56:41;100469.25;;;8.53;79.32
59104;BME280;51449;51.676;5.812;2023-03-26T02:59:25;100459.59;;;8.47;79.82
59104;BME280;51449;51.676;5.812;2023-03-26T03:02:19;100465.88;;;8.47;79.44
59104;BME280;51449;51.676;5.812;2023-03-26T03:04:46;100459.72;;;8.50;79.23
59104;BME280;51449;51.676;5.812;2023-03-26T03:07:08;100454.25;;;8.50;79.08
59104;BME280;51449;51.676;5.812;2023-03-26T03:09:30;100463.75;;;8.53;79.03
59104;BME280;51449;51.676;5.812;2023-03-26T03:12:29;100450.50;;;8.55;78.93
59104;BME280;51449;51.676;5.812;2023-03-26T03:14:51;100449.84;;;8.58;79.06
59104;BME280;51449;51.676;5.812;2023-03-26T03:17:13;100437.75;;;8.59;78.88
59104;BME280;51449;51.676;5.812;2023-03-26T03:19:34;100437.88;;;8.63;79.04
59104;BME280;51449;51.676;5.812;2023-03-26T03:21:58;100441.09;;;8.65;78.86
59104;BME280;51449;51.676;5.812;2023-03-26T03:24:20;100432.19;;;8.68;78.62
59104;BME280;51449;51.676;5.812;2023-03-26T03:26:41;100429.94;;;8.70;78.95
59104;BME280;51449;51.676;5.812;2023-03-26T03:29:17;100425.38;;;8.74;78.80
59104;BME280;51449;51.676;5.812;2023-03-26T03:31:40;100420.38;;;8.76;78.75
59104;BME280;51449;51.676;5.812;2023-03-26T03:34:12;100415.81;;;8.80;78.42
59104;BME280;51449;51.676;5.812;2023-03-26T03:36:39;100416.63;;;8.81;78.39
59104;BME280;51449;51.676;5.812;2023-03-26T03:39:11;100415.50;;;8.82;78.57
59104;BME280;51449;51.676;5.812;2023-03-26T03:41:33;100410.00;;;8.82;78.42
59104;BME280;51449;51.676;5.812;2023-03-26T03:43:57;100417.44;;;8.81;78.44
59104;BME280;51449;51.676;5.812;2023-03-26T03:46:23;100417.75;;;8.79;78.18
59104;BME280;51449;51.676;5.812;2023-03-26T03:48:44;100407.91;;;8.78;78.09
59104;BME280;51449;51.676;5.812;2023-03-26T03:51:23;100409.88;;;8.78;78.04
59104;BME280;51449;51.676;5.812;2023-03-26T03:53:57;100397.59;;;8.75;78.03
59104;BME280;51449;51.676;5.812;2023-03-26T03:56:38;100402.63;;;8.73;77.94
59104;BME280;51449;51.676;5.812;2023-03-26T03:59:12;100395.84;;;8.71;77.82
59104;BME280;51449;51.676;5.812;2023-03-26T04:01:36;100398.13;;;8.69;77.99
59104;BME280;51449;51.676;5.812;2023-03-26T04:04:02;100385.50;;;8.68;77.93
59104;BME280;51449;51.676;5.812;2023-03-26T04:06:47;100390.56;;;8.66;77.69
59104;BME280;51449;51.676;5.812;2023-03-26T04:09:10;100380.69;;;8.65;78.13
59104;BME280;51449;51.676;5.812;2023-03-26T04:11:32;100382.31;;;8.66;77.94
59104;BME280;51449;51.676;5.812;2023-03-26T04:14:12;100379.56;;;8.66;77.69
59104;BME280;51449;51.676;5.812;2023-03-26T04:16:48;100376.47;;;8.67;77.90
59104;BME280;51449;51.676;5.812;2023-03-26T04:19:10;100376.94;;;8.69;77.92
59104;BME280;51449;51.676;5.812;2023-03-26T04:21:31;100368.38;;;8.71;78.02
59104;BME280;51449;51.676;5.812;2023-03-26T04:23:55;100369.19;;;8.71;77.99
59104;BME280;51449;51.676;5.812;2023-03-26T04:26:37;100368.84;;;8.73;77.91
59104;BME280;51449;51.676;5.812;2023-03-26T04:29:10;100359.16;;;8.75;77.92
59104;BME280;51449;51.676;5.812;2023-03-26T04:31:38;100356.41;;;8.75;77.71
59104;BME280;51449;51.676;5.812;2023-03-26T04:34:08;100354.94;;;8.78;78.01
59104;BME280;51449;51.676;5.812;2023-03-26T04:37:02;100353.66;;;8.75;77.76
59104;BME280;51449;51.676;5.812;2023-03-26T04:39:27;100347.81;;;8.77;78.10
59104;BME280;51449;51.676;5.812;2023-03-26T04:42:09;100346.34;;;8.79;77.94
59104;BME280;51449;51.676;5.812;2023-03-26T04:44:46;100351.50;;;8.81;77.99
59104;BME280;51449;51.676;5.812;2023-03-26T04:47:11;100336.16;;;8.80;77.98
59104;BME280;51449;51.676;5.812;2023-03-26T04:49:38;100333.41;;;8.80;77.84
59104;BME280;51449;51.676;5.812;2023-03-26T04:52:00;100323.25;;;8.81;77.51
59104;BME280;51449;51.676;5.812;2023-03-26T04:54:42;100316.91;;;8.80;78.17
59104;BME280;51449;51.676;5.812;2023-03-26T04:59:43;100304.66;;;8.77;77.86
59104;BME280;51449;51.676;5.812;2023-03-26T05:02:07;100310.97;;;8.78;77.84
59104;BME280;51449;51.676;5.812;2023-03-26T05:04:41;100306.63;;;8.77;77.86
59104;BME280;51449;51.676;5.812;2023-03-26T05:07:04;100297.56;;;8.76;77.87
59104;BME280;51449;51.676;5.812;2023-03-26T05:09:32;100300.00;;;8.78;78.08
59104;BME280;51449;51.676;5.812;2023-03-26T05:12:15;100290.94;;;8.77;78.18
59104;BME280;51449;51.676;5.812;2023-03-26T05:14:59;100283.03;;;8.76;77.86
59104;BME280;51449;51.676;5.812;2023-03-26T05:17:44;100284.53;;;8.73;78.17
59104;BME280;51449;51.676;5.812;2023-03-26T05:20:21;100277.28;;;8.69;78.13
59104;BME280;51449;51.676;5.812;2023-03-26T05:22:48;100274.53;;;8.69;78.17
59104;BME280;51449;51.676;5.812;2023-03-26T05:25:19;100269.50;;;8.71;78.23
59104;BME280;51449;51.676;5.812;2023-03-26T05:27:42;100269.16;;;8.72;78.35
59104;BME280;51449;51.676;5.812;2023-03-26T05:30:06;100259.19;;;8.68;78.36
59104;BME280;51449;51.676;5.812;2023-03-26T05:32:36;100257.09;;;8.65;78.19
59104;BME280;51449;51.676;5.812;2023-03-26T05:34:59;100252.28;;;8.62;78.50
59104;BME280;51449;51.676;5.812;2023-03-26T05:37:21;100256.16;;;8.61;78.45
59104;BME280;51449;51.676;5.812;2023-03-26T05:39:55;100248.94;;;8.56;78.35
59104;BME280;51449;51.676;5.812;2023-03-26T05:42:31;100236.03;;;8.56;78.58
59104;BME280;51449;51.676;5.812;2023-03-26T05:45:13;100246.81;;;8.62;78.74
59104;BME280;51449;51.676;5.812;2023-03-26T05:47:36;100246.13;;;8.65;78.79
59104;BME280;51449;51.676;5.812;2023-03-26T05:49:58;100226.56;;;8.66;78.64
59104;BME280;51449;51.676;5.812;2023-03-26T05:52:20;100229.91;;;8.72;78.71
59104;BME280;51449;51.676;5.812;2023-03-26T05:55:20;100222.94;;;8.74;78.94
59104;BME280;51449;51.676;5.812;2023-03-26T05:58:17;100223.75;;;8.75;78.53
59104;BME280;51449;51.676;5.812;2023-03-26T06:01:03;100226.50;;;8.75;78.68
59104;BME280;51449;51.676;5.812;2023-03-26T06:03:46;100220.41;;;8.69;78.64
59104;BME280;51449;51.676;5.812;2023-03-26T06:06:14;100226.44;;;8.63;78.89
59104;BME280;51449;51.676;5.812;2023-03-26T06:08:51;100228.38;;;8.62;79.17
59104;BME280;51449;51.676;5.812;2023-03-26T06:11:22;100220.28;;;8.66;79.36
59104;BME280;51449;51.676;5.812;2023-03-26T06:13:44;100215.72;;;8.70;79.42
59104;BME280;51449;51.676;5.812;2023-03-26T06:16:09;100201.66;;;8.71;79.10
59104;BME280;51449;51.676;5.812;2023-03-26T06:19:11;100200.84;;;8.71;79.33
59104;BME280;51449;51.676;5.812;2023-03-26T06:21:43;100197.63;;;8.69;79.12
59104;BME280;51449;51.676;5.812;2023-03-26T06:24:14;100202.44;;;8.72;78.88
59104;BME280;51449;51.676;5.812;2023-03-26T06:26:51;100199.50;;;8.77;79.13
59104;BME280;51449;51.676;5.812;2023-03-26T06:29:31;100198.00;;;8.79;79.38
59104;BME280;51449;51.676;5.812;2023-03-26T06:32:14;100198.16;;;8.83;79.36
59104;BME280;51449;51.676;5.812;2023-03-26T06:35:10;100201.38;;;8.85;79.42
59104;BME280;51449;51.676;5.812;2023-03-26T06:37:32;100193.56;;;8.87;79.63
59104;BME280;51449;51.676;5.812;2023-03-26T06:39:56;100192.78;;;8.87;79.77
59104;BME280;51449;51.676;5.812;2023-03-26T06:42:38;100192.66;;;8.83;79.51
59104;BME280;51449;51.676;5.812;2023-03-26T06:45:42;100187.38;;;8.78;79.59
59104;BME280;51449;51.676;5.812;2023-03-26T06:48:16;100187.38;;;8.78;79.75
59104;BME280;51449;51.676;5.812;2023-03-26T06:51:02;100178.31;;;8.77;80.06
59104;BME280;51449;51.676;5.812;2023-03-26T06:53:43;100181.69;;;8.83;80.01
59104;BME280;51449;51.676;5.812;2023-03-26T06:56:12;100184.22;;;8.88;80.17
59104;BME280;51449;51.676;5.812;2023-03-26T06:58:48;100180.56;;;8.96;80.03
59104;BME280;51449;51.676;5.812;2023-03-26T07:01:29;100177.59;;;9.02;80.30
59104;BME280;51449;51.676;5.812;2023-03-26T07:04:09;100184.38;;;9.04;79.95
59104;BME280;51449;51.676;5.812;2023-03-26T07:06:49;100187.94;;;9.05;80.13
59104;BME280;51449;51.676;5.812;2023-03-26T07:09:30;100182.09;;;9.06;80.06
59104;BME280;51449;51.676;5.812;2023-03-26T07:12:17;100180.13;;;9.07;80.17
59104;BME280;51449;51.676;5.812;2023-03-26T07:14:52;100181.63;;;9.04;80.33
59104;BME280;51449;51.676;5.812;2023-03-26T07:17:35;100185.63;;;9.07;80.15
59104;BME280;51449;51.676;5.812;2023-03-26T07:20:07;100188.16;;;9.12;80.16
59104;BME280;51449;51.676;5.812;2023-03-26T07:22:29;100190.09;;;9.11;80.48
59104;BME280;51449;51.676;5.812;2023-03-26T07:25:00;100180.38;;;9.14;80.48
59104;BME280;51449;51.676;5.812;2023-03-26T07:27:47;100186.81;;;9.18;80.35
59104;BME280;51449;51.676;5.812;2023-03-26T07:33:49;100178.78;;;9.13;80.48
59104;BME280;51449;51.676;5.812;2023-03-26T07:36:53;100178.78;;;9.13;80.71
59104;BME280;51449;51.676;5.812;2023-03-26T07:39:52;100176.16;;;9.16;80.65
59104;BME280;51449;51.676;5.812;2023-03-26T07:45:43;100169.84;;;9.16;80.73
59104;BME280;51449;51.676;5.812;2023-03-26T07:48:26;100170.78;;;9.20;80.53
59104;BME280;51449;51.676;5.812;2023-03-26T07:51:13;100162.53;;;9.20;80.86
59104;BME280;51449;51.676;5.812;2023-03-26T07:54:02;100169.63;;;9.21;80.84
59104;BME280;51449;51.676;5.812;2023-03-26T07:56:39;100164.94;;;9.21;80.99
59104;BME280;51449;51.676;5.812;2023-03-26T07:59:30;100167.81;;;9.25;80.55
59104;BME280;51449;51.676;5.812;2023-03-26T08:02:41;100161.53;;;9.25;80.82
59104;BME280;51449;51.676;5.812;2023-03-26T08:05:51;100163.00;;;9.22;80.99
59104;BME280;51449;51.676;5.812;2023-03-26T08:09:13;100166.66;;;9.26;81.08
59104;BME280;51449;51.676;5.812;2023-03-26T08:12:36;100155.81;;;9.30;80.95
59104;BME280;51449;51.676;5.812;2023-03-26T08:15:24;100158.78;;;9.37;81.02
59104;BME280;51449;51.676;5.812;2023-03-26T08:17:58;100148.69;;;9.41;81.24
59104;BME280;51449;51.676;5.812;2023-03-26T08:20:40;100151.59;;;9.45;80.96
59104;BME280;51449;51.676;5.812;2023-03-26T08:23:09;100154.44;;;9.48;81.15
59104;BME280;51449;51.676;5.812;2023-03-26T08:25:58;100151.03;;;9.51;81.00
59104;BME280;51449;51.676;5.812;2023-03-26T08:28:42;100149.53;;;9.54;80.85
59104;BME280;51449;51.676;5.812;2023-03-26T08:31:16;100146.78;;;9.54;81.26
59104;BME280;51449;51.676;5.812;2023-03-26T08:33:40;100143.00;;;9.58;81.24
59104;BME280;51449;51.676;5.812;2023-03-26T08:36:02;100142.63;;;9.60;81.28
59104;BME280;51449;51.676;5.812;2023-03-26T08:38:24;100142.78;;;9.63;81.42
59104;BME280;51449;51.676;5.812;2023-03-26T08:41:03;100147.34;;;9.72;81.35
59104;BME280;51449;51.676;5.812;2023-03-26T08:46:56;100133.47;;;9.80;81.34
59104;BME280;51449;51.676;5.812;2023-03-26T08:49:43;100130.81;;;9.84;81.51
59104;BME280;51449;51.676;5.812;2023-03-26T08:52:36;100127.50;;;9.91;81.39
59104;BME280;51449;51.676;5.812;2023-03-26T09:04:18;100131.94;;;10.07;81.28
59104;BME280;51449;51.676;5.812;2023-03-26T09:09:57;100125.50;;;10.16;81.33
59104;BME280;51449;51.676;5.812;2023-03-26T09:12:34;100118.03;;;10.16;81.48
59104;BME280;51449;51.676;5.812;2023-03-26T09:21:27;100116.28;;;10.24;81.32
59104;BME280;51449;51.676;5.812;2023-03-26T09:33:52;100109.50;;;10.34;81.46
59104;BME280;51449;51.676;5.812;2023-03-26T09:36:32;100112.84;;;10.39;81.62
59104;BME280;51449;51.676;5.812;2023-03-26T09:39:11;100119.22;;;10.43;81.90
59104;BME280;51449;51.676;5.812;2023-03-26T09:42:00;100114.63;;;10.47;81.85
59104;BME280;51449;51.676;5.812;2023-03-26T09:57:12;100112.72;;;10.64;80.92
59104;BME280;51449;51.676;5.812;2023-03-26T09:59:56;100114.13;;;10.58;80.69
59104;BME280;51449;51.676;5.812;2023-03-26T10:03:10;100118.13;;;10.60;80.67
59104;BME280;51449;51.676;5.812;2023-03-26T10:08:51;100116.88;;;10.58;79.85
59104;BME280;51449;51.676;5.812;2023-03-26T10:14:28;100112.13;;;10.70;80.06
59104;BME280;51449;51.676;5.812;2023-03-26T10:23:12;100114.09;;;10.86;79.42
59104;BME280;51449;51.676;5.812;2023-03-26T10:26:04;100115.34;;;10.88;79.16
59104;BME280;51449;51.676;5.812;2023-03-26T10:32:16;100110.75;;;10.92;78.58
59104;BME280;51449;51.676;5.812;2023-03-26T10:35:04;100119.69;;;10.89;78.07
59104;BME280;51449;51.676;5.812;2023-03-26T10:41:01;100118.53;;;10.75;77.61
59104;BME280;51449;51.676;5.812;2023-03-26T10:49:35;100122.50;;;10.61;77.81
59104;BME280;51449;51.676;5.812;2023-03-26T10:52:15;100124.00;;;10.59;77.98
59104;BME280;51449;51.676;5.812;2023-03-26T10:57:34;100122.84;;;10.60;78.02
59104;BME280;51449;51.676;5.812;2023-03-26T11:00:22;100124.34;;;10.57;77.90
59104;BME280;51449;51.676;5.812;2023-03-26T11:06:01;100127.63;;;10.63;78.43
59104;BME280;51449;51.676;5.812;2023-03-26T11:08:57;100124.88;;;10.63;78.35
59104;BME280;51449;51.676;5.812;2023-03-26T11:11:35;100127.31;;;10.64;78.49
59104;BME280;51449;51.676;5.812;2023-03-26T11:17:13;100123.19;;;10.58;78.45
59104;BME280;51449;51.676;5.812;2023-03-26T11:32:08;100142.81;;;10.16;78.58
59104;BME280;51449;51.676;5.812;2023-03-26T11:34:51;100140.16;;;10.20;78.90
59104;BME280;51449;51.676;5.812;2023-03-26T11:37:45;100147.97;;;10.30;79.04
59104;BME280;51449;51.676;5.812;2023-03-26T11:40:19;100148.75;;;10.31;79.09
59104;BME280;51449;51.676;5.812;2023-03-26T11:42:46;100150.47;;;10.35;79.21
59104;BME280;51449;51.676;5.812;2023-03-26T11:45:18;100158.94;;;10.42;79.27
59104;BME280;51449;51.676;5.812;2023-03-26T11:47:47;100152.97;;;10.40;78.61
59104;BME280;51449;51.676;5.812;2023-03-26T11:50:17;100150.78;;;10.46;78.76
59104;BME280;51449;51.676;5.812;2023-03-26T11:52:44;100152.94;;;10.53;78.72
59104;BME280;51449;51.676;5.812;2023-03-26T11:55:10;100151.63;;;10.62;78.77
59104;BME280;51449;51.676;5.812;2023-03-26T11:57:34;100153.69;;;10.65;78.42
59104;BME280;51449;51.676;5.812;2023-03-26T12:00:14;100149.19;;;10.73;78.20
59104;BME280;51449;51.676;5.812;2023-03-26T12:02:41;100147.25;;;10.74;78.22
59104;BME280;51449;51.676;5.812;2023-03-26T12:05:22;100151.59;;;10.75;77.80
59104;BME280;51449;51.676;5.812;2023-03-26T12:07:58;100157.59;;;10.64;77.33
59104;BME280;51449;51.676;5.812;2023-03-26T12:10:35;100156.94;;;10.55;77.30
59104;BME280;51449;51.676;5.812;2023-03-26T12:13:23;100155.94;;;10.47;77.30
59104;BME280;51449;51.676;5.812;2023-03-26T12:15:50;100156.91;;;10.39;77.13
59104;BME280;51449;51.676;5.812;2023-03-26T12:18:24;100161.94;;;10.37;77.07
59104;BME280;51449;51.676;5.812;2023-03-26T12:20:47;100161.16;;;10.37;77.50
59104;BME280;51449;51.676;5.812;2023-03-26T12:23:34;100160.00;;;10.38;77.96
59104;BME280;51449;51.676;5.812;2023-03-26T12:26:17;100164.13;;;10.44;78.19
59104;BME280;51449;51.676;5.812;2023-03-26T12:31:41;100165.22;;;10.55;77.98
59104;BME280;51449;51.676;5.812;2023-03-26T12:34:15;100163.81;;;10.61;77.88
59104;BME280;51449;51.676;5.812;2023-03-26T12:36:47;100161.00;;;10.74;77.65
59104;BME280;51449;51.676;5.812;2023-03-26T12:39:30;100162.09;;;10.85;77.46
59104;BME280;51449;51.676;5.812;2023-03-26T12:42:28;100165.22;;;10.83;75.68
59104;BME280;51449;51.676;5.812;2023-03-26T12:45:12;100172.91;;;10.78;75.45
59104;BME280;51449;51.676;5.812;2023-03-26T12:47:34;100174.78;;;10.74;75.65
59104;BME280;51449;51.676;5.812;2023-03-26T12:50:16;100168.91;;;10.75;76.11
59104;BME280;51449;51.676;5.812;2023-03-26T12:53:01;100173.81;;;10.82;75.87
59104;BME280;51449;51.676;5.812;2023-03-26T13:01:30;100182.47;;;10.80;75.88
59104;BME280;51449;51.676;5.812;2023-03-26T13:13:49;100202.97;;;10.55;76.23
59104;BME280;51449;51.676;5.812;2023-03-26T13:19:58;100205.19;;;10.24;77.75
59104;BME280;51449;51.676;5.812;2023-03-26T13:22:52;100206.56;;;10.18;78.34
59104;BME280;51449;51.676;5.812;2023-03-26T13:25:47;100204.53;;;10.15;78.82
59104;BME280;51449;51.676;5.812;2023-03-26T13:30:47;100211.16;;;10.14;79.21
59104;BME280;51449;51.676;5.812;2023-03-26T13:36:30;100215.19;;;10.04;79.58
59104;BME280;51449;51.676;5.812;2023-03-26T13:39:26;100215.78;;;10.10;80.20
59104;BME280;51449;51.676;5.812;2023-03-26T13:42:34;100215.06;;;10.13;80.31
59104;BME280;51449;51.676;5.812;2023-03-26T13:47:58;100223.00;;;10.15;80.29
59104;BME280;51449;51.676;5.812;2023-03-26T13:50:28;100223.78;;;10.15;80.06
59104;BME280;51449;51.676;5.812;2023-03-26T13:53:13;100223.56;;;10.20;79.97
59104;BME280;51449;51.676;5.812;2023-03-26T13:55:59;100225.97;;;10.22;79.89
59104;BME280;51449;51.676;5.812;2023-03-26T14:03:26;100235.03;;;10.10;79.27
59104;BME280;51449;51.676;5.812;2023-03-26T14:05:59;100249.03;;;9.93;79.31
59104;BME280;51449;51.676;5.812;2023-03-26T14:08:35;100246.72;;;9.95;79.42
59104;BME280;51449;51.676;5.812;2023-03-26T14:11:08;100254.06;;;9.91;78.04
59104;BME280;51449;51.676;5.812;2023-03-26T14:13:59;100265.72;;;9.75;77.82
59104;BME280;51449;51.676;5.812;2023-03-26T14:16:32;100270.78;;;9.61;78.03
59104;BME280;51449;51.676;5.812;2023-03-26T14:24:41;100274.69;;;9.27;78.19
59104;BME280;51449;51.676;5.812;2023-03-26T14:27:50;100272.59;;;9.24;78.00
59104;BME280;51449;51.676;5.812;2023-03-26T14:30:36;100277.63;;;9.21;78.14
59104;BME280;51449;51.676;5.812;2023-03-26T14:39:17;100293.31;;;9.21;78.24
59104;BME280;51449;51.676;5.812;2023-03-26T14:42:16;100306.06;;;9.26;78.29
59104;BME280;51449;51.676;5.812;2023-03-26T14:45:05;100307.31;;;9.28;78.80
59104;BME280;51449;51.676;5.812;2023-03-26T14:53:40;100307.38;;;9.40;78.36
59104;BME280;51449;51.676;5.812;2023-03-26T14:59:23;100315.31;;;9.54;78.34
59104;BME280;51449;51.676;5.812;2023-03-26T15:10:22;100323.88;;;9.74;76.33
59104;BME280;51449;51.676;5.812;2023-03-26T15:13:38;100330.63;;;9.76;76.41
59104;BME280;51449;51.676;5.812;2023-03-26T15:22:24;100351.00;;;9.75;75.42
59104;BME280;51449;51.676;5.812;2023-03-26T15:31:48;100366.13;;;9.69;71.36
59104;BME280;51449;51.676;5.812;2023-03-26T15:37:51;100384.19;;;9.58;70.60
59104;BME280;51449;51.676;5.812;2023-03-26T15:49:48;100400.00;;;9.49;68.50
59104;BME280;51449;51.676;5.812;2023-03-26T15:52:47;100409.38;;;9.48;68.32
59104;BME280;51449;51.676;5.812;2023-03-26T15:58:52;100413.59;;;9.45;68.11
59104;BME280;51449;51.676;5.812;2023-03-26T16:01:40;100410.53;;;9.47;68.91
59104;BME280;51449;51.676;5.812;2023-03-26T16:04:23;100422.00;;;9.49;68.69
59104;BME280;51449;51.676;5.812;2023-03-26T16:15:40;100458.19;;;9.51;68.79
59104;BME280;51449;51.676;5.812;2023-03-26T16:21:00;100463.03;;;9.54;67.67
59104;BME280;51449;51.676;5.812;2023-03-26T16:26:10;100471.81;;;9.47;66.32
59104;BME280;51449;51.676;5.812;2023-03-26T16:41:28;100517.59;;;9.22;64.67
59104;BME280;51449;51.676;5.812;2023-03-26T16:44:09;100515.03;;;9.17;64.06
59104;BME280;51449;51.676;5.812;2023-03-26T16:47:06;100520.25;;;9.10;64.12
59104;BME280;51449;51.676;5.812;2023-03-26T16:50:02;100535.63;;;9.02;63.67
59104;BME280;51449;51.676;5.812;2023-03-26T16:52:49;100529.50;;;8.96;63.06
59104;BME280;51449;51.676;5.812;2023-03-26T16:55:34;100541.34;;;8.88;63.74
59104;BME280;51449;51.676;5.812;2023-03-26T16:58:31;100547.66;;;8.89;62.21
59104;BME280;51449;51.676;5.812;2023-03-26T17:01:20;100560.28;;;8.81;62.31
59104;BME280;51449;51.676;5.812;2023-03-26T17:04:04;100569.50;;;8.76;62.57
59104;BME280;51449;51.676;5.812;2023-03-26T17:18:00;100597.97;;;8.54;61.20
59104;BME280;51449;51.676;5.812;2023-03-26T17:20:49;100607.38;;;8.53;60.26
59104;BME280;51449;51.676;5.812;2023-03-26T17:23:27;100604.31;;;8.46;60.66
59104;BME280;51449;51.676;5.812;2023-03-26T17:29:27;100631.91;;;8.41;60.26
59104;BME280;51449;51.676;5.812;2023-03-26T17:32:12;100635.94;;;8.35;61.21
59104;BME280;51449;51.676;5.812;2023-03-26T17:47:49;100668.38;;;8.24;59.91
59104;BME280;51449;51.676;5.812;2023-03-26T17:50:20;100677.59;;;8.20;60.36
59104;BME280;51449;51.676;5.812;2023-03-26T17:52:56;100684.97;;;8.19;59.18
59104;BME280;51449;51.676;5.812;2023-03-26T17:55:25;100697.91;;;8.19;58.75
59104;BME280;51449;51.676;5.812;2023-03-26T17:57:55;100689.81;;;8.13;59.60
59104;BME280;51449;51.676;5.812;2023-03-26T18:00:28;100690.47;;;8.10;59.91
59104;BME280;51449;51.676;5.812;2023-03-26T18:02:57;100706.13;;;8.10;59.99
59104;BME280;51449;51.676;5.812;2023-03-26T18:05:26;100713.53;;;8.09;59.69